sensor_id;sensor_type;location;lat;lon;timestamp;P1;durP1;ratioP1;P2;durP2;ratioP2
40367;SDS011;26075;43.320;21.920;2022-08-02T00:00:24;6.72;;;3.58;;
40367;SDS011;26075;43.320;21.920;2022-08-02T00:05:25;5.60;;;3.13;;
40367;SDS011;26075;43.320;21.920;2022-08-02T00:10:26;4.53;;;3.17;;
40367;SDS011;26075;43.320;21.920;2022-08-02T00:15:27;7.03;;;3.35;;
40367;SDS011;26075;43.320;21.920;2022-08-02T00:20:28;4.20;;;2.90;;
40367;SDS011;26075;43.320;21.920;2022-08-02T00:25:30;5.10;;;3.10;;
40367;SDS011;26075;43.320;21.920;2022-08-02T00:30:31;4.45;;;3.20;;
40367;SDS011;26075;43.320;21.920;2022-08-02T00:35:32;4.75;;;2.50;;
40367;SDS011;26075;43.320;21.920;2022-08-02T00:40:33;5.13;;;3.45;;
40367;SDS011;26075;43.320;21.920;2022-08-02T00:45:34;4.65;;;3.03;;
40367;SDS011;26075;43.320;21.920;2022-08-02T00:50:36;7.05;;;3.15;;
40367;SDS011;26075;43.320;21.920;2022-08-02T00:55:37;4.20;;;2.63;;
40367;SDS011;26075;43.320;21.920;2022-08-02T01:00:39;4.30;;;2.88;;
40367;SDS011;26075;43.320;21.920;2022-08-02T01:05:40;4.55;;;3.38;;
40367;SDS011;26075;43.320;21.920;2022-08-02T01:10:41;6.60;;;3.10;;
40367;SDS011;26075;43.320;21.920;2022-08-02T01:15:42;5.10;;;3.05;;
40367;SDS011;26075;43.320;21.920;2022-08-02T01:31:00;6.55;;;2.80;;
40367;SDS011;26075;43.320;21.920;2022-08-02T01:36:02;3.83;;;2.60;;
40367;SDS011;26075;43.320;21.920;2022-08-02T01:41:04;3.60;;;2.45;;
40367;SDS011;26075;43.320;21.920;2022-08-02T01:46:08;3.90;;;2.50;;
40367;SDS011;26075;43.320;21.920;2022-08-02T01:51:11;5.85;;;2.85;;
40367;SDS011;26075;43.320;21.920;2022-08-02T01:56:12;6.03;;;2.83;;
40367;SDS011;26075;43.320;21.920;2022-08-02T02:01:15;5.60;;;2.70;;
40367;SDS011;26075;43.320;21.920;2022-08-02T02:06:17;4.50;;;2.80;;
40367;SDS011;26075;43.320;21.920;2022-08-02T02:11:18;5.97;;;3.03;;
40367;SDS011;26075;43.320;21.920;2022-08-02T02:16:20;4.10;;;2.85;;
40367;SDS011;26075;43.320;21.920;2022-08-02T02:21:22;4.32;;;2.40;;
40367;SDS011;26075;43.320;21.920;2022-08-02T02:26:23;5.20;;;3.17;;
40367;SDS011;26075;43.320;21.920;2022-08-02T02:31:25;4.55;;;3.10;;
40367;SDS011;26075;43.320;21.920;2022-08-02T02:36:27;4.15;;;2.60;;
40367;SDS011;26075;43.320;21.920;2022-08-02T02:41:29;6.28;;;2.80;;
40367;SDS011;26075;43.320;21.920;2022-08-02T02:46:30;4.57;;;2.97;;
40367;SDS011;26075;43.320;21.920;2022-08-02T02:51:31;6.28;;;2.55;;
40367;SDS011;26075;43.320;21.920;2022-08-02T02:56:33;5.75;;;2.80;;
40367;SDS011;26075;43.320;21.920;2022-08-02T03:01:35;6.68;;;2.75;;
40367;SDS011;26075;43.320;21.920;2022-08-02T03:06:37;3.58;;;2.42;;
40367;SDS011;26075;43.320;21.920;2022-08-02T03:11:38;3.25;;;2.33;;
40367;SDS011;26075;43.320;21.920;2022-08-02T03:16:41;6.50;;;2.45;;
40367;SDS011;26075;43.320;21.920;2022-08-02T03:21:43;4.43;;;2.72;;
40367;SDS011;26075;43.320;21.920;2022-08-02T03:26:44;5.30;;;2.60;;
40367;SDS011;26075;43.320;21.920;2022-08-02T03:31:45;3.97;;;2.67;;
40367;SDS011;26075;43.320;21.920;2022-08-02T03:36:47;7.50;;;2.78;;
40367;SDS011;26075;43.320;21.920;2022-08-02T03:41:50;5.07;;;2.70;;
40367;SDS011;26075;43.320;21.920;2022-08-02T03:46:52;4.25;;;2.80;;
40367;SDS011;26075;43.320;21.920;2022-08-02T03:51:54;6.55;;;2.80;;
40367;SDS011;26075;43.320;21.920;2022-08-02T03:56:55;7.60;;;2.67;;
40367;SDS011;26075;43.320;21.920;2022-08-02T04:01:56;5.75;;;2.65;;
40367;SDS011;26075;43.320;21.920;2022-08-02T04:06:57;5.45;;;2.92;;
40367;SDS011;26075;43.320;21.920;2022-08-02T04:11:58;6.45;;;3.50;;
40367;SDS011;26075;43.320;21.920;2022-08-02T04:17:03;11.93;;;3.25;;
40367;SDS011;26075;43.320;21.920;2022-08-02T04:22:06;6.72;;;3.00;;
40367;SDS011;26075;43.320;21.920;2022-08-02T04:27:09;6.30;;;3.20;;
40367;SDS011;26075;43.320;21.920;2022-08-02T04:32:10;8.82;;;3.63;;
40367;SDS011;26075;43.320;21.920;2022-08-02T04:37:12;11.07;;;3.13;;
40367;SDS011;26075;43.320;21.920;2022-08-02T04:42:20;6.18;;;3.30;;
40367;SDS011;26075;43.320;21.920;2022-08-02T04:47:21;4.97;;;3.03;;
40367;SDS011;26075;43.320;21.920;2022-08-02T04:52:22;6.30;;;2.97;;
40367;SDS011;26075;43.320;21.920;2022-08-02T04:57:23;6.18;;;3.17;;
40367;SDS011;26075;43.320;21.920;2022-08-02T05:02:43;5.95;;;2.97;;
40367;SDS011;26075;43.320;21.920;2022-08-02T05:07:44;5.60;;;2.72;;
40367;SDS011;26075;43.320;21.920;2022-08-02T05:12:45;7.85;;;2.60;;
40367;SDS011;26075;43.320;21.920;2022-08-02T05:17:46;4.72;;;2.58;;
40367;SDS011;26075;43.320;21.920;2022-08-02T05:22:47;6.47;;;2.80;;
40367;SDS011;26075;43.320;21.920;2022-08-02T05:27:48;7.25;;;3.20;;
40367;SDS011;26075;43.320;21.920;2022-08-02T05:32:50;6.47;;;3.80;;
40367;SDS011;26075;43.320;21.920;2022-08-02T05:37:54;6.43;;;3.43;;
40367;SDS011;26075;43.320;21.920;2022-08-02T05:42:55;4.93;;;2.92;;
40367;SDS011;26075;43.320;21.920;2022-08-02T05:47:56;4.55;;;3.15;;
40367;SDS011;26075;43.320;21.920;2022-08-02T05:53:00;6.38;;;3.28;;
40367;SDS011;26075;43.320;21.920;2022-08-02T06:08:38;7.38;;;3.47;;
40367;SDS011;26075;43.320;21.920;2022-08-02T06:13:41;9.07;;;3.97;;
40367;SDS011;26075;43.320;21.920;2022-08-02T06:18:43;4.57;;;3.20;;
40367;SDS011;26075;43.320;21.920;2022-08-02T06:23:44;7.03;;;4.25;;
40367;SDS011;26075;43.320;21.920;2022-08-02T06:28:45;6.47;;;3.65;;
40367;SDS011;26075;43.320;21.920;2022-08-02T06:33:47;7.90;;;4.57;;
40367;SDS011;26075;43.320;21.920;2022-08-02T06:39:23;10.40;;;5.13;;
40367;SDS011;26075;43.320;21.920;2022-08-02T06:44:15;6.03;;;3.60;;
40367;SDS011;26075;43.320;21.920;2022-08-02T06:49:16;5.40;;;4.10;;
40367;SDS011;26075;43.320;21.920;2022-08-02T06:54:17;6.50;;;4.40;;
40367;SDS011;26075;43.320;21.920;2022-08-02T06:59:20;6.35;;;4.18;;
40367;SDS011;26075;43.320;21.920;2022-08-02T07:04:21;9.93;;;4.75;;
40367;SDS011;26075;43.320;21.920;2022-08-02T07:09:22;7.90;;;4.75;;
40367;SDS011;26075;43.320;21.920;2022-08-02T07:14:23;7.32;;;5.78;;
40367;SDS011;26075;43.320;21.920;2022-08-02T07:19:24;7.88;;;4.53;;
40367;SDS011;26075;43.320;21.920;2022-08-02T07:24:25;8.40;;;5.47;;
40367;SDS011;26075;43.320;21.920;2022-08-02T07:29:27;8.10;;;4.93;;
40367;SDS011;26075;43.320;21.920;2022-08-02T07:34:28;7.43;;;4.63;;
40367;SDS011;26075;43.320;21.920;2022-08-02T07:39:29;9.32;;;5.13;;
40367;SDS011;26075;43.320;21.920;2022-08-02T07:44:30;6.65;;;5.03;;
40367;SDS011;26075;43.320;21.920;2022-08-02T07:49:33;6.18;;;4.43;;
40367;SDS011;26075;43.320;21.920;2022-08-02T07:54:34;6.15;;;4.53;;
40367;SDS011;26075;43.320;21.920;2022-08-02T07:59:35;8.27;;;4.75;;
40367;SDS011;26075;43.320;21.920;2022-08-02T08:04:36;7.28;;;3.40;;
40367;SDS011;26075;43.320;21.920;2022-08-02T08:09:37;7.15;;;3.60;;
40367;SDS011;26075;43.320;21.920;2022-08-02T08:14:40;4.40;;;3.08;;
40367;SDS011;26075;43.320;21.920;2022-08-02T08:19:41;8.68;;;3.10;;
40367;SDS011;26075;43.320;21.920;2022-08-02T08:24:42;4.75;;;2.97;;
40367;SDS011;26075;43.320;21.920;2022-08-02T08:29:44;4.18;;;3.00;;
40367;SDS011;26075;43.320;21.920;2022-08-02T08:34:45;5.32;;;2.95;;
40367;SDS011;26075;43.320;21.920;2022-08-02T08:39:46;5.07;;;3.20;;
40367;SDS011;26075;43.320;21.920;2022-08-02T08:44:48;5.95;;;3.22;;
40367;SDS011;26075;43.320;21.920;2022-08-02T08:49:50;4.75;;;2.97;;
40367;SDS011;26075;43.320;21.920;2022-08-02T08:54:52;5.47;;;2.28;;
40367;SDS011;26075;43.320;21.920;2022-08-02T08:59:54;4.63;;;2.78;;
40367;SDS011;26075;43.320;21.920;2022-08-02T09:04:56;4.70;;;2.67;;
40367;SDS011;26075;43.320;21.920;2022-08-02T09:09:57;6.25;;;2.47;;
40367;SDS011;26075;43.320;21.920;2022-08-02T09:15:00;3.72;;;2.40;;
40367;SDS011;26075;43.320;21.920;2022-08-02T09:20:07;6.35;;;2.28;;
40367;SDS011;26075;43.320;21.920;2022-08-02T09:25:12;5.20;;;2.50;;
40367;SDS011;26075;43.320;21.920;2022-08-02T09:30:14;4.63;;;2.20;;
40367;SDS011;26075;43.320;21.920;2022-08-02T09:40:37;8.73;;;2.63;;
40367;SDS011;26075;43.320;21.920;2022-08-02T09:45:38;15.65;;;3.53;;
40367;SDS011;26075;43.320;21.920;2022-08-02T09:50:40;8.18;;;2.60;;
40367;SDS011;26075;43.320;21.920;2022-08-02T09:55:41;4.57;;;2.10;;
40367;SDS011;26075;43.320;21.920;2022-08-02T10:00:52;7.13;;;2.13;;
40367;SDS011;26075;43.320;21.920;2022-08-02T10:05:54;7.25;;;2.25;;
40367;SDS011;26075;43.320;21.920;2022-08-02T10:11:00;5.07;;;2.17;;
40367;SDS011;26075;43.320;21.920;2022-08-02T10:16:02;6.22;;;2.63;;
40367;SDS011;26075;43.320;21.920;2022-08-02T10:21:06;5.45;;;2.40;;
40367;SDS011;26075;43.320;21.920;2022-08-02T10:26:07;7.68;;;5.15;;
40367;SDS011;26075;43.320;21.920;2022-08-02T10:31:08;7.97;;;2.40;;
40367;SDS011;26075;43.320;21.920;2022-08-02T10:36:10;12.07;;;3.30;;
40367;SDS011;26075;43.320;21.920;2022-08-02T10:41:13;4.72;;;2.97;;
40367;SDS011;26075;43.320;21.920;2022-08-02T10:51:24;4.10;;;2.20;;
40367;SDS011;26075;43.320;21.920;2022-08-02T10:56:44;5.95;;;2.33;;
40367;SDS011;26075;43.320;21.920;2022-08-02T11:01:45;7.35;;;2.28;;
40367;SDS011;26075;43.320;21.920;2022-08-02T11:12:07;4.30;;;2.10;;
40367;SDS011;26075;43.320;21.920;2022-08-02T11:17:15;6.13;;;2.55;;
40367;SDS011;26075;43.320;21.920;2022-08-02T11:22:17;4.85;;;2.10;;
40367;SDS011;26075;43.320;21.920;2022-08-02T11:27:19;3.22;;;2.00;;
40367;SDS011;26075;43.320;21.920;2022-08-02T11:32:21;12.40;;;2.05;;
40367;SDS011;26075;43.320;21.920;2022-08-02T11:37:33;4.13;;;2.10;;
40367;SDS011;26075;43.320;21.920;2022-08-02T11:42:38;6.93;;;2.35;;
40367;SDS011;26075;43.320;21.920;2022-08-02T11:47:44;5.20;;;2.70;;
40367;SDS011;26075;43.320;21.920;2022-08-02T11:52:45;3.55;;;1.73;;
40367;SDS011;26075;43.320;21.920;2022-08-02T11:57:46;4.65;;;2.10;;
40367;SDS011;26075;43.320;21.920;2022-08-02T12:02:49;4.32;;;2.05;;
40367;SDS011;26075;43.320;21.920;2022-08-02T12:07:51;6.40;;;2.53;;
40367;SDS011;26075;43.320;21.920;2022-08-02T12:12:57;4.25;;;2.00;;
40367;SDS011;26075;43.320;21.920;2022-08-02T12:17:58;4.70;;;1.98;;
40367;SDS011;26075;43.320;21.920;2022-08-02T12:23:18;6.78;;;2.35;;
40367;SDS011;26075;43.320;21.920;2022-08-02T12:28:21;3.28;;;1.90;;
40367;SDS011;26075;43.320;21.920;2022-08-02T12:38:25;3.15;;;1.75;;
40367;SDS011;26075;43.320;21.920;2022-08-02T12:43:26;4.22;;;2.40;;
40367;SDS011;26075;43.320;21.920;2022-08-02T12:48:31;5.50;;;3.15;;
40367;SDS011;26075;43.320;21.920;2022-08-02T12:53:34;5.30;;;2.40;;
40367;SDS011;26075;43.320;21.920;2022-08-02T12:58:46;5.72;;;2.47;;
40367;SDS011;26075;43.320;21.920;2022-08-02T13:03:48;6.47;;;2.40;;
40367;SDS011;26075;43.320;21.920;2022-08-02T13:08:49;5.18;;;2.63;;
40367;SDS011;26075;43.320;21.920;2022-08-02T13:13:50;6.28;;;2.10;;
40367;SDS011;26075;43.320;21.920;2022-08-02T13:18:51;5.43;;;2.30;;
40367;SDS011;26075;43.320;21.920;2022-08-02T13:23:52;8.90;;;2.17;;
40367;SDS011;26075;43.320;21.920;2022-08-02T13:28:53;10.88;;;2.75;;
40367;SDS011;26075;43.320;21.920;2022-08-02T13:33:54;5.90;;;2.00;;
40367;SDS011;26075;43.320;21.920;2022-08-02T13:38:55;3.90;;;2.15;;
40367;SDS011;26075;43.320;21.920;2022-08-02T13:43:57;4.75;;;2.30;;
40367;SDS011;26075;43.320;21.920;2022-08-02T13:48:58;5.45;;;1.85;;
40367;SDS011;26075;43.320;21.920;2022-08-02T13:53:59;4.95;;;2.05;;
40367;SDS011;26075;43.320;21.920;2022-08-02T13:59:00;3.38;;;2.03;;
40367;SDS011;26075;43.320;21.920;2022-08-02T14:04:01;3.00;;;1.88;;
40367;SDS011;26075;43.320;21.920;2022-08-02T14:09:02;5.55;;;1.88;;
40367;SDS011;26075;43.320;21.920;2022-08-02T14:14:03;6.18;;;2.67;;
40367;SDS011;26075;43.320;21.920;2022-08-02T14:19:04;3.58;;;1.83;;
40367;SDS011;26075;43.320;21.920;2022-08-02T14:24:05;4.43;;;2.00;;
40367;SDS011;26075;43.320;21.920;2022-08-02T14:29:06;5.35;;;1.98;;
40367;SDS011;26075;43.320;21.920;2022-08-02T14:34:07;3.33;;;1.52;;
40367;SDS011;26075;43.320;21.920;2022-08-02T14:39:08;4.55;;;2.20;;
40367;SDS011;26075;43.320;21.920;2022-08-02T14:44:10;4.20;;;2.20;;
40367;SDS011;26075;43.320;21.920;2022-08-02T14:49:11;3.65;;;2.03;;
40367;SDS011;26075;43.320;21.920;2022-08-02T14:54:13;4.47;;;1.75;;
40367;SDS011;26075;43.320;21.920;2022-08-02T14:59:14;3.67;;;2.20;;
40367;SDS011;26075;43.320;21.920;2022-08-02T15:04:15;3.20;;;1.75;;
40367;SDS011;26075;43.320;21.920;2022-08-02T15:09:16;4.95;;;2.00;;
40367;SDS011;26075;43.320;21.920;2022-08-02T15:14:17;3.88;;;2.17;;
40367;SDS011;26075;43.320;21.920;2022-08-02T15:19:19;5.63;;;2.00;;
40367;SDS011;26075;43.320;21.920;2022-08-02T15:24:20;4.00;;;2.08;;
40367;SDS011;26075;43.320;21.920;2022-08-02T15:29:21;3.83;;;1.70;;
40367;SDS011;26075;43.320;21.920;2022-08-02T15:34:22;2.70;;;1.80;;
40367;SDS011;26075;43.320;21.920;2022-08-02T15:39:23;4.82;;;1.75;;
40367;SDS011;26075;43.320;21.920;2022-08-02T15:44:25;6.45;;;2.05;;
40367;SDS011;26075;43.320;21.920;2022-08-02T15:49:26;5.75;;;2.30;;
40367;SDS011;26075;43.320;21.920;2022-08-02T15:54:27;7.50;;;2.28;;
40367;SDS011;26075;43.320;21.920;2022-08-02T15:59:28;7.70;;;3.35;;
40367;SDS011;26075;43.320;21.920;2022-08-02T16:04:29;5.30;;;2.97;;
40367;SDS011;26075;43.320;21.920;2022-08-02T16:09:30;5.20;;;2.38;;
40367;SDS011;26075;43.320;21.920;2022-08-02T16:14:32;4.63;;;2.20;;
40367;SDS011;26075;43.320;21.920;2022-08-02T16:19:33;4.85;;;2.40;;
40367;SDS011;26075;43.320;21.920;2022-08-02T16:24:34;3.83;;;2.30;;
40367;SDS011;26075;43.320;21.920;2022-08-02T16:29:35;4.45;;;2.25;;
40367;SDS011;26075;43.320;21.920;2022-08-02T16:34:36;5.55;;;2.03;;
40367;SDS011;26075;43.320;21.920;2022-08-02T16:39:38;4.03;;;2.40;;
40367;SDS011;26075;43.320;21.920;2022-08-02T16:44:39;5.70;;;2.10;;
40367;SDS011;26075;43.320;21.920;2022-08-02T16:49:40;5.93;;;2.60;;
40367;SDS011;26075;43.320;21.920;2022-08-02T16:54:41;4.60;;;2.50;;
40367;SDS011;26075;43.320;21.920;2022-08-02T16:59:42;10.02;;;3.00;;
40367;SDS011;26075;43.320;21.920;2022-08-02T17:04:43;6.53;;;2.35;;
40367;SDS011;26075;43.320;21.920;2022-08-02T17:09:44;4.95;;;2.55;;
40367;SDS011;26075;43.320;21.920;2022-08-02T17:14:45;9.75;;;3.30;;
40367;SDS011;26075;43.320;21.920;2022-08-02T17:19:47;7.20;;;2.25;;
40367;SDS011;26075;43.320;21.920;2022-08-02T17:24:48;6.85;;;2.53;;
40367;SDS011;26075;43.320;21.920;2022-08-02T17:29:49;4.13;;;2.38;;
40367;SDS011;26075;43.320;21.920;2022-08-02T17:34:50;4.35;;;2.58;;
40367;SDS011;26075;43.320;21.920;2022-08-02T17:39:51;5.07;;;2.50;;
40367;SDS011;26075;43.320;21.920;2022-08-02T17:44:52;4.35;;;2.67;;
40367;SDS011;26075;43.320;21.920;2022-08-02T17:49:54;9.60;;;3.33;;
40367;SDS011;26075;43.320;21.920;2022-08-02T17:54:55;4.78;;;2.70;;
40367;SDS011;26075;43.320;21.920;2022-08-02T17:59:57;3.88;;;2.35;;
40367;SDS011;26075;43.320;21.920;2022-08-02T18:04:58;4.95;;;2.70;;
40367;SDS011;26075;43.320;21.920;2022-08-02T18:09:59;6.03;;;2.70;;
40367;SDS011;26075;43.320;21.920;2022-08-02T18:15:00;5.30;;;2.63;;
40367;SDS011;26075;43.320;21.920;2022-08-02T18:20:02;4.45;;;2.80;;
40367;SDS011;26075;43.320;21.920;2022-08-02T18:25:03;10.60;;;2.92;;
40367;SDS011;26075;43.320;21.920;2022-08-02T18:30:05;8.20;;;3.05;;
40367;SDS011;26075;43.320;21.920;2022-08-02T18:35:07;8.25;;;3.45;;
40367;SDS011;26075;43.320;21.920;2022-08-02T18:40:08;7.55;;;3.15;;
40367;SDS011;26075;43.320;21.920;2022-08-02T18:45:10;6.80;;;3.17;;
40367;SDS011;26075;43.320;21.920;2022-08-02T18:50:11;5.68;;;3.10;;
40367;SDS011;26075;43.320;21.920;2022-08-02T18:55:12;6.85;;;3.05;;
40367;SDS011;26075;43.320;21.920;2022-08-02T19:00:13;5.18;;;2.80;;
40367;SDS011;26075;43.320;21.920;2022-08-02T19:05:14;5.85;;;2.58;;
40367;SDS011;26075;43.320;21.920;2022-08-02T19:10:15;7.20;;;3.40;;
40367;SDS011;26075;43.320;21.920;2022-08-02T19:15:16;6.90;;;3.42;;
40367;SDS011;26075;43.320;21.920;2022-08-02T19:20:17;8.63;;;3.40;;
40367;SDS011;26075;43.320;21.920;2022-08-02T19:25:18;13.85;;;3.63;;
40367;SDS011;26075;43.320;21.920;2022-08-02T19:30:20;10.18;;;4.00;;
40367;SDS011;26075;43.320;21.920;2022-08-02T19:35:21;6.63;;;3.65;;
40367;SDS011;26075;43.320;21.920;2022-08-02T19:40:22;11.02;;;3.28;;
40367;SDS011;26075;43.320;21.920;2022-08-02T19:45:24;10.23;;;3.67;;
40367;SDS011;26075;43.320;21.920;2022-08-02T19:50:25;8.07;;;3.90;;
40367;SDS011;26075;43.320;21.920;2022-08-02T19:55:26;15.88;;;9.57;;
40367;SDS011;26075;43.320;21.920;2022-08-02T20:00:27;16.70;;;7.03;;
40367;SDS011;26075;43.320;21.920;2022-08-02T20:05:28;9.38;;;5.40;;
40367;SDS011;26075;43.320;21.920;2022-08-02T20:10:30;12.20;;;5.38;;
40367;SDS011;26075;43.320;21.920;2022-08-02T20:15:32;9.50;;;5.07;;
40367;SDS011;26075;43.320;21.920;2022-08-02T20:20:33;12.88;;;5.88;;
40367;SDS011;26075;43.320;21.920;2022-08-02T20:25:38;9.48;;;4.95;;
40367;SDS011;26075;43.320;21.920;2022-08-02T20:30:39;13.15;;;5.72;;
40367;SDS011;26075;43.320;21.920;2022-08-02T20:35:41;13.73;;;6.70;;
40367;SDS011;26075;43.320;21.920;2022-08-02T20:40:42;12.43;;;5.43;;
40367;SDS011;26075;43.320;21.920;2022-08-02T20:45:43;17.35;;;5.85;;
40367;SDS011;26075;43.320;21.920;2022-08-02T20:50:44;17.02;;;4.78;;
40367;SDS011;26075;43.320;21.920;2022-08-02T20:55:51;13.55;;;5.68;;
40367;SDS011;26075;43.320;21.920;2022-08-02T21:00:52;9.98;;;4.95;;
40367;SDS011;26075;43.320;21.920;2022-08-02T21:05:57;12.02;;;6.50;;
40367;SDS011;26075;43.320;21.920;2022-08-02T21:10:58;10.40;;;6.15;;
40367;SDS011;26075;43.320;21.920;2022-08-02T21:15:59;18.10;;;6.07;;
40367;SDS011;26075;43.320;21.920;2022-08-02T21:21:00;12.43;;;6.13;;
40367;SDS011;26075;43.320;21.920;2022-08-02T21:26:01;9.65;;;6.05;;
40367;SDS011;26075;43.320;21.920;2022-08-02T21:31:02;13.52;;;5.15;;
40367;SDS011;26075;43.320;21.920;2022-08-02T21:36:03;20.17;;;6.47;;
40367;SDS011;26075;43.320;21.920;2022-08-02T21:41:04;15.27;;;5.20;;
40367;SDS011;26075;43.320;21.920;2022-08-02T21:46:06;12.18;;;5.63;;
40367;SDS011;26075;43.320;21.920;2022-08-02T21:51:07;18.45;;;5.22;;
40367;SDS011;26075;43.320;21.920;2022-08-02T21:56:08;11.63;;;5.10;;
40367;SDS011;26075;43.320;21.920;2022-08-02T22:01:09;10.88;;;5.55;;
40367;SDS011;26075;43.320;21.920;2022-08-02T22:06:11;11.32;;;5.72;;
40367;SDS011;26075;43.320;21.920;2022-08-02T22:11:12;12.65;;;5.75;;
40367;SDS011;26075;43.320;21.920;2022-08-02T22:16:13;9.23;;;5.10;;
40367;SDS011;26075;43.320;21.920;2022-08-02T22:21:14;9.30;;;5.30;;
40367;SDS011;26075;43.320;21.920;2022-08-02T22:26:15;9.65;;;5.00;;
40367;SDS011;26075;43.320;21.920;2022-08-02T22:31:16;7.63;;;4.18;;
40367;SDS011;26075;43.320;21.920;2022-08-02T22:36:17;6.65;;;4.10;;
40367;SDS011;26075;43.320;21.920;2022-08-02T22:41:18;5.60;;;3.65;;
40367;SDS011;26075;43.320;21.920;2022-08-02T22:46:21;5.82;;;3.70;;
40367;SDS011;26075;43.320;21.920;2022-08-02T22:51:22;5.68;;;3.75;;
40367;SDS011;26075;43.320;21.920;2022-08-02T22:56:23;5.30;;;3.50;;
40367;SDS011;26075;43.320;21.920;2022-08-02T23:01:24;6.00;;;4.10;;
40367;SDS011;26075;43.320;21.920;2022-08-02T23:06:25;4.93;;;3.60;;
40367;SDS011;26075;43.320;21.920;2022-08-02T23:11:27;10.98;;;3.38;;
40367;SDS011;26075;43.320;21.920;2022-08-02T23:16:28;5.88;;;3.03;;
40367;SDS011;26075;43.320;21.920;2022-08-02T23:21:47;5.45;;;3.33;;
40367;SDS011;26075;43.320;21.920;2022-08-02T23:26:48;7.47;;;3.08;;
40367;SDS011;26075;43.320;21.920;2022-08-02T23:31:49;5.60;;;3.08;;
40367;SDS011;26075;43.320;21.920;2022-08-02T23:36:50;4.90;;;3.35;;
40367;SDS011;26075;43.320;21.920;2022-08-02T23:41:51;8.63;;;3.40;;
40367;SDS011;26075;43.320;21.920;2022-08-02T23:46:55;5.63;;;3.53;;
40367;SDS011;26075;43.320;21.920;2022-08-02T23:51:56;5.75;;;3.90;;
40367;SDS011;26075;43.320;21.920;2022-08-02T23:56:57;5.63;;;3.75;;
